createdAt,value
2023-04-15T00:01:37.469Z,100423.94
2023-04-15T00:04:05.168Z,100423.03
2023-04-15T00:06:32.055Z,100416.91
2023-04-15T00:08:59.180Z,100417.00
2023-04-15T00:11:26.148Z,100418.84
2023-04-15T00:13:53.084Z,100417.00
2023-04-15T00:16:20.050Z,100414.44
2023-04-15T00:18:46.950Z,100418.06
2023-04-15T00:21:13.905Z,100414.63
2023-04-15T00:23:41.005Z,100415.56
2023-04-15T00:26:08.637Z,100411.94
2023-04-15T00:28:35.432Z,100413.78
2023-04-15T00:31:03.604Z,100412.13
2023-04-15T00:33:30.486Z,100412.22
2023-04-15T00:35:57.682Z,100413.28
2023-04-15T00:38:24.548Z,100414.25
2023-04-15T00:40:51.846Z,100415.22
2023-04-15T00:43:18.767Z,100425.97
2023-04-15T00:45:47.160Z,100418.88
2023-04-15T00:48:14.504Z,100418.19
2023-04-15T00:50:41.277Z,100418.31
2023-04-15T00:53:08.079Z,100419.47
2023-04-15T00:55:36.219Z,100420.44
2023-04-15T00:58:03.218Z,100420.63
2023-04-15T01:00:31.248Z,100416.41
2023-04-15T01:02:59.062Z,100418.34
2023-04-15T01:05:27.113Z,100416.78
2023-04-15T01:07:55.256Z,100420.63
2023-04-15T01:10:22.240Z,100419.13
2023-04-15T01:12:49.456Z,100412.22
2023-04-15T01:15:16.349Z,100411.63
2023-04-15T01:17:43.471Z,100423.34
2023-04-15T01:20:12.140Z,100419.13
2023-04-15T01:22:40.707Z,100413.16
2023-04-15T01:25:18.409Z,100418.75
2023-04-15T01:27:45.615Z,100413.66
2023-04-15T01:30:12.660Z,100416.53
2023-04-15T01:32:39.558Z,100419.50
2023-04-15T01:35:07.697Z,100417.88
2023-04-15T01:37:34.865Z,100411.03
2023-04-15T01:40:01.726Z,100407.59
2023-04-15T01:42:28.769Z,100413.19
2023-04-15T01:44:55.909Z,100414.13
2023-04-15T01:47:23.196Z,100413.53
2023-04-15T01:49:50.306Z,100418.13
2023-04-15T01:52:17.150Z,100421.88
2023-04-15T01:54:44.350Z,100414.78
2023-04-15T01:57:12.459Z,100413.91
2023-04-15T01:59:39.282Z,100415.75
2023-04-15T02:02:06.224Z,100420.34
2023-04-15T02:04:34.238Z,100417.53
2023-04-15T02:07:01.750Z,100422.91
2023-04-15T02:09:29.263Z,100410.47
2023-04-15T02:11:56.611Z,100426.56
2023-04-15T02:14:24.123Z,100425.97
2023-04-15T02:16:51.131Z,100425.22
2023-04-15T02:19:18.277Z,100423.69
2023-04-15T02:21:45.198Z,100427.47
2023-04-15T02:24:12.362Z,100424.03
2023-04-15T02:26:41.470Z,100424.91
2023-04-15T02:29:08.409Z,100427.69
2023-04-15T02:31:40.346Z,100433.06
2023-04-15T02:34:08.218Z,100436.69
2023-04-15T02:36:35.288Z,100434.00
2023-04-15T02:39:02.490Z,100442.13
2023-04-15T02:41:30.414Z,100440.50
2023-04-15T02:43:57.844Z,100447.78
2023-04-15T02:46:24.910Z,100442.59
2023-04-15T02:48:53.366Z,100451.78
2023-04-15T02:51:22.900Z,100449.19
2023-04-15T02:53:50.750Z,100450.25
2023-04-15T02:56:19.353Z,100451.34
2023-04-15T02:58:46.699Z,100453.28
2023-04-15T03:01:13.782Z,100456.16
2023-04-15T03:03:41.639Z,100455.34
2023-04-15T03:06:09.177Z,100452.88
2023-04-15T03:08:37.049Z,100457.53
2023-04-15T03:11:05.080Z,100456.78
2023-04-15T03:13:33.470Z,100454.25
2023-04-15T03:16:07.182Z,100451.66
2023-04-15T03:18:34.406Z,100462.47
2023-04-15T03:21:03.540Z,100462.56
2023-04-15T03:23:34.054Z,100457.38
2023-04-15T03:26:03.638Z,100464.66
2023-04-15T03:28:32.824Z,100459.38
2023-04-15T03:31:00.746Z,100463.09
2023-04-15T03:33:27.804Z,100466.72
2023-04-15T03:35:54.697Z,100470.34
2023-04-15T03:38:21.599Z,100465.97
2023-04-15T03:40:48.509Z,100469.50
2023-04-15T03:43:15.437Z,100466.03
2023-04-15T03:45:42.434Z,100465.19
2023-04-15T03:48:17.356Z,100468.63
2023-04-15T03:50:45.506Z,100468.63
2023-04-15T03:53:12.351Z,100472.25
2023-04-15T03:55:39.160Z,100476.69
2023-04-15T03:58:06.083Z,100481.06
2023-04-15T04:00:33.028Z,100486.28
2023-04-15T04:03:00.042Z,100488.97
2023-04-15T04:05:26.998Z,100496.06
2023-04-15T04:07:53.804Z,100494.25
2023-04-15T04:10:20.783Z,100497.78
2023-04-15T04:12:47.576Z,100506.69
2023-04-15T04:15:14.367Z,100503.22
2023-04-15T04:17:41.357Z,100510.41
2023-04-15T04:20:08.925Z,100513.09
2023-04-15T04:22:40.596Z,100516.56
2023-04-15T04:25:08.800Z,100525.56
2023-04-15T04:27:36.054Z,100520.38
2023-04-15T04:30:03.332Z,100524.94
2023-04-15T04:32:30.299Z,100519.66
2023-04-15T04:34:57.186Z,100529.53
2023-04-15T04:37:24.698Z,100542.16
2023-04-15T04:39:51.583Z,100543.09
2023-04-15T04:42:18.361Z,100547.69
2023-04-15T04:44:45.153Z,100553.91
2023-04-15T04:47:12.010Z,100554.94
2023-04-15T04:49:39.778Z,100552.28
2023-04-15T04:52:11.630Z,100549.59
2023-04-15T04:54:38.544Z,100554.94
2023-04-15T04:57:05.414Z,100560.41
2023-04-15T04:59:32.154Z,100563.94
2023-04-15T05:01:59.033Z,100564.91
2023-04-15T05:04:26.496Z,100574.66
2023-04-15T05:06:53.355Z,100587.13
2023-04-15T05:09:20.183Z,100579.09
2023-04-15T05:11:46.968Z,100586.16
2023-04-15T05:14:13.813Z,100583.16
2023-04-15T05:16:40.647Z,100596.84
2023-04-15T05:19:07.913Z,100596.66
2023-04-15T05:21:34.698Z,100595.47
2023-04-15T05:24:01.691Z,100597.00
2023-04-15T05:26:29.004Z,100607.06
2023-04-15T05:28:55.810Z,100608.09
2023-04-15T05:31:22.699Z,100617.97
2023-04-15T05:33:49.603Z,100613.28
2023-04-15T05:36:16.585Z,100625.19
2023-04-15T05:38:43.564Z,100635.75
2023-04-15T05:41:10.406Z,100635.75
2023-04-15T05:43:37.260Z,100643.03
2023-04-15T05:46:04.299Z,100638.28
2023-04-15T05:48:31.228Z,100645.13
2023-04-15T05:50:58.648Z,100646.34
2023-04-15T05:53:25.480Z,100646.72
2023-04-15T05:55:52.451Z,100646.72
2023-04-15T05:58:19.265Z,100648.78
2023-04-15T06:00:46.334Z,100650.53
2023-04-15T06:03:13.571Z,100652.25
2023-04-15T06:05:40.772Z,100657.44
2023-04-15T06:08:08.382Z,100664.38
2023-04-15T06:10:36.834Z,100669.56
2023-04-15T06:13:04.398Z,100679.94
2023-04-15T06:15:31.825Z,100684.97
2023-04-15T06:17:58.748Z,100681.16
2023-04-15T06:20:25.751Z,100695.16
2023-04-15T06:22:52.580Z,100695.69
2023-04-15T06:25:19.937Z,100709.56
2023-04-15T06:27:46.876Z,100707.38
2023-04-15T06:30:13.798Z,100711.25
2023-04-15T06:32:40.938Z,100724.94
2023-04-15T06:35:08.292Z,100717.47
2023-04-15T06:37:35.111Z,100725.91
2023-04-15T06:40:01.981Z,100729.50
2023-04-15T06:42:28.793Z,100737.53
2023-04-15T06:44:55.721Z,100742.56
2023-04-15T06:47:22.856Z,100746.84
2023-04-15T06:49:49.706Z,100748.00
2023-04-15T06:52:16.759Z,100753.00
2023-04-15T06:54:43.686Z,100756.75
2023-04-15T06:57:10.535Z,100759.28
2023-04-15T06:59:37.420Z,100766.16
2023-04-15T07:02:04.876Z,100755.50
2023-04-15T07:04:32.883Z,100773.06
2023-04-15T07:07:00.762Z,100774.75
2023-04-15T07:09:27.614Z,100781.06
2023-04-15T07:11:54.557Z,100779.88
2023-04-15T07:14:21.539Z,100789.63
2023-04-15T07:16:49.122Z,100794.00
2023-04-15T07:19:19.901Z,100797.13
2023-04-15T07:21:47.637Z,100801.66
2023-04-15T07:24:18.078Z,100806.16
2023-04-15T07:26:45.354Z,100807.44
2023-04-15T07:29:12.188Z,100806.09
2023-04-15T07:31:40.758Z,100811.03
2023-04-15T07:34:07.810Z,100816.38
2023-04-15T07:36:35.359Z,100826.16
2023-04-15T07:39:04.060Z,100830.41
2023-04-15T07:41:31.709Z,100826.69
2023-04-15T07:43:58.946Z,100836.34
2023-04-15T07:46:27.352Z,100828.88
2023-04-15T07:48:54.646Z,100834.97
2023-04-15T07:51:21.874Z,100833.84
2023-04-15T07:53:50.466Z,100842.97
2023-04-15T07:56:17.496Z,100843.53
2023-04-15T07:58:44.307Z,100855.38
2023-04-15T08:01:11.704Z,100856.31
2023-04-15T08:03:39.521Z,100858.75
2023-04-15T08:06:06.702Z,100863.88
2023-04-15T08:08:33.507Z,100872.16
2023-04-15T08:11:00.693Z,100868.41
2023-04-15T08:13:27.941Z,100866.09
2023-04-15T08:16:24.658Z,100866.69
2023-04-15T08:18:54.097Z,100871.53
2023-04-15T08:21:21.383Z,100872.44
2023-04-15T08:23:52.119Z,100874.19
2023-04-15T08:26:21.189Z,100875.00
2023-04-15T08:28:49.488Z,100883.50
2023-04-15T08:31:18.956Z,100889.81
2023-04-15T08:33:46.337Z,100881.41
2023-04-15T08:36:13.968Z,100893.31
2023-04-15T08:38:41.081Z,100895.16
2023-04-15T08:41:18.542Z,100896.41
2023-04-15T08:43:58.800Z,100904.66
2023-04-15T08:46:26.814Z,100901.75
2023-04-15T08:48:58.052Z,100916.31
2023-04-15T08:51:25.572Z,100907.78
2023-04-15T08:53:53.023Z,100918.16
2023-04-15T08:56:25.185Z,100919.19
2023-04-15T08:58:53.625Z,100929.53
2023-04-15T09:01:21.144Z,100925.59
2023-04-15T09:03:50.896Z,100940.31
2023-04-15T09:06:18.560Z,100935.47
2023-04-15T09:08:45.814Z,100933.50
2023-04-15T09:11:13.359Z,100945.59
2023-04-15T09:13:40.781Z,100943.78
2023-04-15T09:16:08.480Z,100950.88
2023-04-15T09:18:37.415Z,100955.88
2023-04-15T09:21:06.509Z,100952.84
2023-04-15T09:23:34.105Z,100954.56
2023-04-15T09:26:05.629Z,100959.50
2023-04-15T09:28:33.043Z,100967.03
2023-04-15T09:31:01.871Z,100971.06
2023-04-15T09:33:30.389Z,100975.69
2023-04-15T09:36:05.632Z,100972.06
2023-04-15T09:38:32.964Z,100979.59
2023-04-15T09:41:00.170Z,100982.56
2023-04-15T09:43:40.024Z,100990.84
2023-04-15T09:46:07.117Z,100990.25
2023-04-15T09:48:34.172Z,100995.03
2023-04-15T09:51:02.341Z,100992.19
2023-04-15T09:53:31.728Z,100995.25
2023-04-15T09:56:03.264Z,100995.91
2023-04-15T09:58:35.305Z,101006.50
2023-04-15T10:01:06.375Z,101009.28
2023-04-15T10:03:39.062Z,101009.81
2023-04-15T10:06:06.195Z,101007.94
2023-04-15T10:08:37.479Z,101012.59
2023-04-15T10:11:06.207Z,101010.22
2023-04-15T10:13:35.044Z,101017.69
2023-04-15T10:16:15.443Z,101019.66
2023-04-15T10:18:51.086Z,101018.03
2023-04-15T10:21:19.439Z,101013.84
2023-04-15T10:23:47.266Z,101013.28
2023-04-15T10:26:15.573Z,101018.03
2023-04-15T10:28:42.520Z,101017.09
2023-04-15T10:31:16.394Z,101013.97
2023-04-15T10:33:45.961Z,101022.75
2023-04-15T10:36:13.821Z,101023.47
2023-04-15T10:38:45.768Z,101026.69
2023-04-15T10:41:24.690Z,101033.91
2023-04-15T10:43:57.785Z,101037.09
2023-04-15T10:46:36.738Z,101037.09
2023-04-15T10:49:24.371Z,101034.22
2023-04-15T10:51:59.795Z,101033.19
2023-04-15T10:54:26.485Z,101040.75
2023-04-15T10:57:14.463Z,101036.88
2023-04-15T11:00:00.676Z,101040.97
2023-04-15T11:02:52.814Z,101034.88
2023-04-15T11:05:22.695Z,101044.25
2023-04-15T11:07:57.065Z,101042.47
2023-04-15T11:10:26.925Z,101042.22
2023-04-15T11:12:58.379Z,101049.78
2023-04-15T11:15:41.660Z,101036.41
2023-04-15T11:18:19.650Z,101040.69
2023-04-15T11:20:56.578Z,101050.28
2023-04-15T11:23:41.367Z,101048.97
2023-04-15T11:26:11.751Z,101043.50
2023-04-15T11:28:41.720Z,101052.66
2023-04-15T11:31:11.657Z,101050.09
2023-04-15T11:33:56.586Z,101059.94
2023-04-15T11:36:28.814Z,101072.50
2023-04-15T11:38:59.033Z,101061.41
2023-04-15T11:41:26.106Z,101069.47
2023-04-15T11:43:53.008Z,101065.81
2023-04-15T11:46:22.939Z,101070.63
2023-04-15T11:48:49.998Z,101070.84
2023-04-15T11:51:16.971Z,101076.47
2023-04-15T11:53:49.888Z,101079.22
2023-04-15T11:56:25.719Z,101081.22
2023-04-15T11:58:59.357Z,101084.44
2023-04-15T12:01:39.778Z,101073.78
2023-04-15T12:04:25.231Z,101085.28
2023-04-15T12:06:53.064Z,101076.78
2023-04-15T12:09:21.775Z,101086.19
2023-04-15T12:11:57.377Z,101085.13
2023-04-15T12:14:32.081Z,101077.66
2023-04-15T12:17:05.389Z,101089.22
2023-04-15T12:19:39.605Z,101088.66
2023-04-15T12:22:15.877Z,101090.41
2023-04-15T12:24:47.896Z,101103.06
2023-04-15T12:27:17.218Z,101104.97
2023-04-15T12:29:44.573Z,101094.19
2023-04-15T12:32:21.064Z,101110.56
2023-04-15T12:34:54.420Z,101115.84
2023-04-15T12:37:21.847Z,101117.53
2023-04-15T12:39:50.618Z,101128.88
2023-04-15T12:42:18.804Z,101119.16
2023-04-15T12:44:46.075Z,101129.88
2023-04-15T12:47:13.976Z,101129.41
2023-04-15T12:49:41.389Z,101130.88
2023-04-15T12:52:08.900Z,101139.31
2023-04-15T12:54:36.365Z,101134.53
2023-04-15T12:57:06.979Z,101136.41
2023-04-15T12:59:35.778Z,101142.19
2023-04-15T13:02:03.326Z,101139.31
2023-04-15T13:04:31.076Z,101167.19
2023-04-15T13:06:58.484Z,101160.84
2023-04-15T13:09:25.325Z,101151.94
2023-04-15T13:11:52.938Z,101164.03
2023-04-15T13:14:19.882Z,101153.84
2023-04-15T13:16:47.274Z,101164.63
2023-04-15T13:19:14.368Z,101163.75
2023-04-15T13:21:41.444Z,101164.63
2023-04-15T13:24:09.440Z,101163.72
2023-04-15T13:26:36.602Z,101164.91
2023-04-15T13:29:05.040Z,101164.03
2023-04-15T13:31:32.151Z,101160.13
2023-04-15T13:33:59.059Z,101178.97
2023-04-15T13:36:26.713Z,101177.84
2023-04-15T13:38:53.687Z,101187.88
2023-04-15T13:41:21.208Z,101195.50
2023-04-15T13:43:48.009Z,101185.88
2023-04-15T13:46:15.073Z,101200.38
2023-04-15T13:48:42.200Z,101193.56
2023-04-15T13:51:09.125Z,101202.50
2023-04-15T13:53:39.062Z,101206.28
2023-04-15T13:56:08.691Z,101215.38
2023-04-15T13:58:37.503Z,101216.47
2023-04-15T14:01:06.764Z,101219.22
2023-04-15T14:03:38.367Z,101230.00
2023-04-15T14:06:06.418Z,101227.28
2023-04-15T14:08:33.905Z,101222.41
2023-04-15T14:11:01.085Z,101228.13
2023-04-15T14:13:28.197Z,101236.81
2023-04-15T14:15:56.711Z,101228.78
2023-04-15T14:18:23.618Z,101239.38
2023-04-15T14:20:50.452Z,101237.66
2023-04-15T14:23:17.382Z,101239.56
2023-04-15T14:25:46.687Z,101239.16
2023-04-15T14:28:15.412Z,101252.47
2023-04-15T14:30:42.678Z,101246.72
2023-04-15T14:33:09.798Z,101241.56
2023-04-15T14:35:36.725Z,101242.34
2023-04-15T14:38:03.968Z,101264.00
2023-04-15T14:40:31.033Z,101263.78
2023-04-15T14:42:57.840Z,101272.06
2023-04-15T14:45:24.859Z,101259.94
2023-04-15T14:47:53.057Z,101269.16
2023-04-15T14:50:19.961Z,101273.97
2023-04-15T14:52:46.771Z,101291.91
2023-04-15T14:55:14.330Z,101282.25
2023-04-15T14:57:42.683Z,101292.31
2023-04-15T15:00:13.807Z,101297.53
2023-04-15T15:02:43.779Z,101292.81
2023-04-15T15:05:12.175Z,101306.78
2023-04-15T15:07:41.069Z,101304.69
2023-04-15T15:10:09.001Z,101323.97
2023-04-15T15:12:36.361Z,101312.34
2023-04-15T15:15:12.146Z,101315.38
2023-04-15T15:17:43.172Z,101314.97
2023-04-15T15:20:10.527Z,101322.91
2023-04-15T15:22:37.376Z,101317.78
2023-04-15T15:25:05.738Z,101322.25
2023-04-15T15:27:32.567Z,101324.19
2023-04-15T15:29:59.755Z,101330.31
2023-04-15T15:32:26.721Z,101344.81
2023-04-15T15:34:53.565Z,101338.13
2023-04-15T15:37:20.738Z,101344.53
2023-04-15T15:39:49.042Z,101345.66
2023-04-15T15:42:15.881Z,101344.75
2023-04-15T15:44:42.683Z,101346.25
2023-04-15T15:47:09.664Z,101359.09
2023-04-15T15:49:36.582Z,101360.94
2023-04-15T15:52:03.386Z,101360.63
2023-04-15T15:54:30.405Z,101359.78
2023-04-15T15:56:57.637Z,101357.19
2023-04-15T15:59:25.582Z,101366.72
2023-04-15T16:01:52.879Z,101371.91
2023-04-15T16:04:20.035Z,101380.66
2023-04-15T16:06:48.626Z,101382.59
2023-04-15T16:09:15.988Z,101383.59
2023-04-15T16:11:42.944Z,101396.56
2023-04-15T16:14:09.773Z,101396.78
2023-04-15T16:16:36.933Z,101399.34
2023-04-15T16:19:03.990Z,101404.31
2023-04-15T16:21:31.628Z,101393.22
2023-04-15T16:23:58.467Z,101400.59
2023-04-15T16:26:25.309Z,101412.69
2023-04-15T16:28:52.113Z,101417.91
2023-04-15T16:31:18.975Z,101421.28
2023-04-15T16:33:45.938Z,101425.19
2023-04-15T16:36:12.859Z,101427.69
2023-04-15T16:38:39.716Z,101422.69
2023-04-15T16:41:06.572Z,101432.75
2023-04-15T16:43:33.418Z,101432.84
2023-04-15T16:46:00.272Z,101435.63
2023-04-15T16:48:27.318Z,101441.44
2023-04-15T16:50:54.120Z,101445.31
2023-04-15T16:53:21.142Z,101454.78
2023-04-15T16:55:48.018Z,101453.63
2023-04-15T16:58:14.863Z,101451.50
2023-04-15T17:00:41.744Z,101466.38
2023-04-15T17:03:08.973Z,101469.81
2023-04-15T17:05:36.158Z,101469.69
2023-04-15T17:08:05.294Z,101465.75
2023-04-15T17:10:32.146Z,101463.59
2023-04-15T17:12:59.809Z,101471.19
2023-04-15T17:15:27.287Z,101472.25
2023-04-15T17:17:54.701Z,101477.66
2023-04-15T17:20:21.933Z,101478.44
2023-04-15T17:22:48.958Z,101475.53
2023-04-15T17:25:16.231Z,101480.16
2023-04-15T17:27:43.187Z,101479.38
2023-04-15T17:30:10.691Z,101491.41
2023-04-15T17:32:39.974Z,101484.63
2023-04-15T17:35:07.896Z,101486.88
2023-04-15T17:37:36.106Z,101482.94
2023-04-15T17:40:03.518Z,101499.31
2023-04-15T17:42:33.056Z,101500.34
2023-04-15T17:44:59.869Z,101502.78
2023-04-15T17:47:28.073Z,101510.28
2023-04-15T17:49:54.867Z,101509.94
2023-04-15T17:52:21.714Z,101501.91
2023-04-15T17:54:49.075Z,101511.13
2023-04-15T17:57:16.694Z,101516.38
2023-04-15T17:59:45.036Z,101514.47
2023-04-15T18:02:12.151Z,101517.41
2023-04-15T18:04:40.203Z,101510.72
2023-04-15T18:07:07.261Z,101523.84
2023-04-15T18:09:34.223Z,101528.09
2023-04-15T18:12:02.155Z,101540.75
2023-04-15T18:14:34.829Z,101541.59
2023-04-15T18:17:05.268Z,101543.69
2023-04-15T18:19:32.300Z,101551.13
2023-04-15T18:22:00.409Z,101545.03
2023-04-15T18:24:28.015Z,101550.44
2023-04-15T18:26:54.990Z,101551.81
2023-04-15T18:29:22.328Z,101551.28
2023-04-15T18:31:49.220Z,101562.38
2023-04-15T18:34:16.160Z,101554.56
2023-04-15T18:36:43.198Z,101562.00
2023-04-15T18:39:10.459Z,101564.06
2023-04-15T18:41:37.402Z,101567.88
2023-04-15T18:44:04.251Z,101577.38
2023-04-15T18:46:31.248Z,101577.72
2023-04-15T18:48:58.147Z,101577.16
2023-04-15T18:51:25.075Z,101594.38
2023-04-15T18:53:51.935Z,101590.81
2023-04-15T18:56:21.347Z,101592.78
2023-04-15T18:59:28.009Z,101592.06
2023-04-15T19:01:36.089Z,101598.63
2023-04-15T19:04:03.259Z,101588.47
2023-04-15T19:06:30.947Z,101601.47
2023-04-15T19:08:58.614Z,101603.00
2023-04-15T19:11:26.375Z,101612.56
2023-04-15T19:13:53.696Z,101612.09
2023-04-15T19:16:21.007Z,101619.84
2023-04-15T19:18:47.917Z,101627.38
2023-04-15T19:21:15.471Z,101620.53
2023-04-15T19:23:45.280Z,101630.63
2023-04-15T19:26:12.260Z,101640.06
2023-04-15T19:28:39.290Z,101637.63
2023-04-15T19:31:06.766Z,101642.09
2023-04-15T19:33:34.042Z,101645.78
2023-04-15T19:36:06.870Z,101655.66
2023-04-15T19:38:37.970Z,101650.28
2023-04-15T19:41:04.836Z,101648.53
2023-04-15T19:43:33.052Z,101648.81
2023-04-15T19:46:00.154Z,101655.28
2023-04-15T19:48:27.118Z,101660.66
2023-04-15T19:50:54.190Z,101652.59
2023-04-15T19:53:21.052Z,101661.59
2023-04-15T19:55:48.521Z,101658.25
2023-04-15T19:58:15.544Z,101667.38
2023-04-15T20:00:42.464Z,101657.63
2023-04-15T20:03:09.476Z,101664.84
2023-04-15T20:05:36.403Z,101659.31
2023-04-15T20:08:03.592Z,101665.38
2023-04-15T20:10:31.856Z,101663.63
2023-04-15T20:12:58.907Z,101665.38
2023-04-15T20:15:26.166Z,101669.00
2023-04-15T20:17:53.399Z,101667.13
2023-04-15T20:20:20.625Z,101665.25
2023-04-15T20:22:47.818Z,101668.59
2023-04-15T20:25:14.987Z,101668.44
2023-04-15T20:27:42.108Z,101668.59
2023-04-15T20:30:09.605Z,101670.47
2023-04-15T20:32:36.723Z,101674.09
2023-04-15T20:35:05.745Z,101674.09
2023-04-15T20:37:33.615Z,101680.28
2023-04-15T20:40:01.664Z,101670.56
2023-04-15T20:42:36.447Z,101669.59
2023-04-15T20:45:03.873Z,101674.09
2023-04-15T20:47:30.924Z,101670.56
2023-04-15T20:49:57.877Z,101669.66
2023-04-15T20:52:24.822Z,101683.78
2023-04-15T20:54:51.648Z,101682.97
2023-04-15T20:57:20.276Z,101686.34
2023-04-15T20:59:47.437Z,101681.03
2023-04-15T21:02:14.283Z,101686.19
2023-04-15T21:04:41.175Z,101680.69
2023-04-15T21:07:08.206Z,101682.44
2023-04-15T21:09:35.063Z,101678.78
2023-04-15T21:12:02.409Z,101689.41
2023-04-15T21:14:29.770Z,101693.78
2023-04-15T21:16:59.696Z,101691.03
2023-04-15T21:19:26.632Z,101694.50
2023-04-15T21:21:53.478Z,101697.19
2023-04-15T21:24:20.337Z,101694.38
2023-04-15T21:26:47.223Z,101695.31
2023-04-15T21:29:14.394Z,101692.63
2023-04-15T21:31:41.757Z,101703.38
2023-04-15T21:34:09.741Z,101699.75
2023-04-15T21:36:38.561Z,101704.13
2023-04-15T21:39:06.093Z,101705.00
2023-04-15T21:41:33.287Z,101699.34
2023-04-15T21:44:00.282Z,101697.53
2023-04-15T21:46:32.907Z,101684.97
2023-04-15T21:49:02.041Z,101683.06
2023-04-15T21:51:28.963Z,101702.84
2023-04-15T21:53:55.987Z,101699.41
2023-04-15T21:56:24.254Z,101713.59
2023-04-15T21:58:56.806Z,101712.88
2023-04-15T22:01:24.489Z,101715.63
2023-04-15T22:03:52.067Z,101719.94
2023-04-15T22:06:19.078Z,101717.25
2023-04-15T22:08:56.200Z,101725.31
2023-04-15T22:11:28.413Z,101718.97
2023-04-15T22:13:57.345Z,101724.38
2023-04-15T22:16:28.181Z,101720.75
2023-04-15T22:18:55.870Z,101725.16
2023-04-15T22:21:23.344Z,101726.06
2023-04-15T22:23:53.002Z,101733.97
2023-04-15T22:26:39.765Z,101731.50
2023-04-15T22:29:06.951Z,101722.47
2023-04-15T22:31:34.049Z,101726.88
2023-04-15T22:34:01.206Z,101735.00
2023-04-15T22:36:28.686Z,101736.72
2023-04-15T22:38:55.503Z,101740.25
2023-04-15T22:41:22.298Z,101737.69
2023-04-15T22:43:49.099Z,101743.13
2023-04-15T22:46:16.712Z,101742.09
2023-04-15T22:48:43.659Z,101750.84
2023-04-15T22:51:10.546Z,101757.19
2023-04-15T22:53:37.419Z,101747.38
2023-04-15T22:56:04.350Z,101758.13
2023-04-15T22:58:32.137Z,101748.97
2023-04-15T23:00:59.179Z,101755.97
2023-04-15T23:03:26.405Z,101759.47
2023-04-15T23:05:53.371Z,101759.31
2023-04-15T23:08:20.300Z,101759.47
2023-04-15T23:10:47.294Z,101765.91
2023-04-15T23:13:14.122Z,101764.97
2023-04-15T23:15:41.048Z,101768.47
2023-04-15T23:18:07.881Z,101772.88
2023-04-15T23:20:34.741Z,101770.25
2023-04-15T23:23:01.650Z,101771.03
2023-04-15T23:25:28.478Z,101771.16
2023-04-15T23:27:55.254Z,101777.34
2023-04-15T23:30:22.066Z,101775.75
2023-04-15T23:32:48.916Z,101776.69
2023-04-15T23:35:16.687Z,101772.31
2023-04-15T23:37:43.472Z,101781.25
2023-04-15T23:40:11.532Z,101778.44
2023-04-15T23:42:38.346Z,101781.13
2023-04-15T23:45:05.743Z,101790.00
2023-04-15T23:47:32.588Z,101782.59
2023-04-15T23:49:59.420Z,101782.59
2023-04-15T23:52:26.456Z,101784.38
2023-04-15T23:54:53.383Z,101786.22
2023-04-15T23:57:20.400Z,101791.78
2023-04-15T23:59:47.339Z,101787.53
